Airport View

Enter AWOS ICAO identifier for current METAR.

ex. KFNL

KGMJ 212315Z AUTO 16009G15KT 10SM BKN110 27/18 A3001 RMK AO2

21 Sep 2019 23:23

Frequency: 119.025

Phone: 918-786-8350

Other Area AWOS: KSLG - KXNA - KVBT - KROG

TAF KXNA 211725Z 2118/2218 18015G23KT P6SM BKN035 BKN250 FM220000 17012KT P6SM BKN250 FM221200 19012KT P6SM BKN025 FM221500 19015G23KT P6SM SCT025 BKN035